Aérodrome :
LOGIN :

S'inscrire | Disclaimer

   EN    FR    IT 

 










Légende :    VFR   VFR Marginal   IFR   IFR Intensif   IFR Très Intensif
Visi : 
Plafond : 
>= 8 km
>= 3000ft
5 à 8 km
1000 à 3000 ft
1500m à 5 km
500 à 1000 ft
800 à 1500m
200 à 500 ft
< 800m
< 200 ft
Symboles :   Orages  Brouillard  Fortes neiges  Fortes précipitations  Vent > 20 kt
SIGMETs :   Divers  Orages  Givrage  Turbulence  Onde Orograph.  Cendres Volcan.







- Altitude de l'aérodrome : 375 ft
- Code IATA : MST


EHBK - Maastricht Aachen

DERNIER METAR :
  • 182355Z AUTO 21010KT 9999 NSC 07/02 Q1016

METARs EXPIRÉS :
  • 182325Z AUTO 21011KT 9999 NSC 08/02 Q1016
  • 182255Z AUTO 20011KT 9999 NSC 08/02 Q1016
  • 182225Z AUTO 20010KT 9999 NSC 08/02 Q1016
  • 182155Z AUTO 20011KT 9999 NSC 07/02 Q1016 NOSIG
  • 182125Z AUTO 20011KT 9999 NSC 08/02 Q1016 NOSIG

TAF TAF EHBK
Valide du 19 à 00h jusqu'au 20 à 06h UTC


182318Z 1900/2006 22008KT CAVOK
BECMG 1902/1905 7000 -RADZ BKN012
PROB30 1902/1907 4000 BR -DZ BKN009
BECMG 1906/1909 25014KT 9999 NSW BKN020
BECMG 1921/1924 22007KT
Pas de NOTAMs connus pour ce terrain.



MET'MAP, la Météo Aéronautique d'un coup d'oeil ! - Copyright ORBIFLY Décembre 2007 - Disclaimer

ORBIFLY MET'MAP TEAM :

Programmation & Développement : Alexandra Zaïnal
Conception & Développement : Baudouin d'Aumeries
Co-Programmation & Développement : Marc-Olivier Méhu
Soutien technique & logistique : Manuel Goepfert

Contact : metmap@orbifly.com




SOURCES & CREDITS :

   NOAA